createdAt,value
2019-03-20T04:16:44.891Z,99.90
2019-03-20T04:19:13.943Z,99.90
2019-03-20T04:21:43.132Z,99.90
2019-03-20T04:24:12.263Z,99.90
2019-03-20T04:26:41.343Z,99.90
2019-03-20T04:29:10.467Z,99.90
2019-03-20T04:31:39.456Z,99.90
2019-03-20T04:34:08.480Z,99.90
2019-03-20T04:36:47.195Z,99.90
2019-03-20T04:39:08.523Z,99.90
2019-03-20T04:41:37.524Z,99.90
2019-03-20T04:44:06.619Z,99.90
2019-03-20T04:46:35.531Z,99.90
2019-03-20T04:49:04.607Z,99.90
2019-03-20T04:51:33.536Z,99.90
2019-03-20T04:54:02.470Z,99.90
2019-03-20T04:56:31.408Z,99.90
2019-03-20T04:59:00.360Z,99.90
2019-03-20T05:01:29.334Z,99.90
2019-03-20T05:03:58.255Z,99.90
2019-03-20T05:06:27.326Z,99.90
2019-03-20T05:08:56.423Z,99.90
2019-03-20T05:11:25.444Z,99.90
2019-03-20T05:13:54.439Z,99.90
2019-03-20T05:16:23.449Z,99.90
2019-03-20T05:18:52.441Z,99.90
2019-03-20T05:21:21.549Z,99.90
2019-03-20T05:23:50.572Z,99.90
2019-03-20T05:26:19.622Z,99.90
2019-03-20T05:28:48.632Z,99.90
2019-03-20T05:31:17.574Z,99.90
2019-03-20T05:33:46.577Z,99.90
2019-03-20T05:36:15.962Z,99.90
2019-03-20T05:38:44.973Z,99.90
2019-03-20T05:41:14.042Z,99.90
2019-03-20T05:43:43.019Z,99.90
2019-03-20T05:46:11.976Z,99.90
2019-03-20T05:48:41.142Z,99.90
2019-03-20T05:51:10.114Z,99.90
2019-03-20T05:53:39.263Z,99.90
2019-03-20T05:56:08.187Z,99.90
2019-03-20T05:58:37.178Z,99.90
2019-03-20T06:01:06.283Z,99.90
2019-03-20T06:03:35.191Z,99.90
2019-03-20T06:06:04.202Z,99.90
2019-03-20T06:08:33.191Z,99.90
2019-03-20T06:11:02.171Z,99.90
2019-03-20T06:13:31.115Z,99.90
2019-03-20T06:16:00.129Z,99.90
2019-03-20T06:18:29.135Z,99.90
2019-03-20T06:20:59.802Z,99.90
2019-03-20T06:23:28.752Z,99.90
2019-03-20T06:25:57.739Z,99.90
2019-03-20T06:28:26.686Z,99.90
2019-03-20T06:30:55.662Z,99.90
2019-03-20T06:33:24.740Z,99.90
2019-03-20T06:35:53.793Z,99.90
2019-03-20T06:38:22.734Z,99.90
2019-03-20T06:40:51.748Z,99.90
2019-03-20T06:43:20.681Z,99.90
2019-03-20T06:45:49.812Z,99.90
2019-03-20T06:48:18.896Z,99.90
2019-03-20T06:50:47.924Z,99.90
2019-03-20T06:53:16.986Z,99.90
2019-03-20T06:55:46.088Z,99.90
2019-03-20T06:58:15.158Z,99.90
2019-03-20T07:00:53.770Z,99.90
2019-03-20T07:03:32.952Z,99.90
2019-03-20T07:06:18.391Z,99.90
2019-03-20T07:08:51.535Z,99.90
2019-03-20T07:11:19.098Z,99.90
2019-03-20T07:13:50.448Z,99.90
2019-03-20T07:16:18.794Z,99.90
2019-03-20T07:18:47.805Z,99.90
2019-03-20T07:21:18.735Z,99.90
2019-03-20T07:23:47.622Z,99.90
2019-03-20T07:26:16.607Z,99.90
2019-03-20T07:28:45.619Z,99.90
2019-03-20T07:31:15.873Z,99.90
2019-03-20T07:33:45.137Z,99.90
2019-03-20T07:36:14.255Z,99.90
2019-03-20T07:38:43.320Z,99.90
2019-03-20T07:41:12.349Z,99.90
2019-03-20T07:43:41.418Z,99.90
2019-03-20T07:46:10.490Z,98.30
2019-03-20T07:48:40.737Z,97.10
2019-03-20T07:51:09.916Z,95.20
2019-03-20T07:53:38.960Z,95.40
2019-03-20T07:56:07.876Z,93.80
2019-03-20T07:58:36.787Z,93.10
2019-03-20T08:01:05.853Z,90.90
2019-03-20T08:03:35.249Z,89.60
2019-03-20T08:06:05.310Z,80.90
2019-03-20T08:08:34.622Z,79.50
2019-03-20T08:11:03.761Z,79.10
2019-03-20T08:13:32.759Z,80.80
2019-03-20T08:16:03.931Z,79.60
2019-03-20T08:18:32.453Z,81.20
2019-03-20T08:21:01.531Z,79.30
2019-03-20T08:23:30.815Z,79.50
2019-03-20T08:26:00.208Z,77.70
2019-03-20T08:28:29.308Z,78.10
2019-03-20T08:30:58.767Z,81.40
2019-03-20T08:33:28.135Z,80.70
2019-03-20T08:35:57.116Z,78.60
2019-03-20T08:38:26.156Z,80.10
2019-03-20T08:40:55.136Z,77.00
2019-03-20T08:43:24.441Z,77.00
2019-03-20T08:45:54.183Z,72.80
2019-03-20T08:48:23.299Z,74.30
2019-03-20T08:50:52.647Z,75.20
2019-03-20T08:53:22.022Z,74.70
2019-03-20T08:55:51.790Z,72.00
2019-03-20T08:58:20.767Z,75.50
2019-03-20T09:00:50.025Z,71.00
2019-03-20T09:03:19.540Z,70.50
2019-03-20T09:05:50.967Z,68.20
2019-03-20T09:08:28.843Z,67.80
2019-03-20T09:10:50.944Z,67.80
2019-03-20T09:13:20.254Z,62.60
2019-03-20T09:15:49.338Z,65.90
2019-03-20T09:18:18.541Z,62.20
2019-03-20T09:20:47.859Z,60.90
2019-03-20T09:23:17.254Z,58.50
2019-03-20T09:25:46.403Z,59.00
2019-03-20T09:28:15.404Z,58.60
2019-03-20T09:30:44.504Z,57.60
2019-03-20T09:33:13.551Z,60.10
2019-03-20T09:35:42.610Z,59.20
2019-03-20T09:38:11.670Z,58.00
2019-03-20T09:40:40.726Z,58.40
2019-03-20T09:43:09.908Z,54.50
2019-03-20T09:45:38.933Z,54.10
2019-03-20T09:48:07.859Z,54.40
2019-03-20T09:50:36.867Z,52.80
2019-03-20T09:53:05.955Z,48.50
2019-03-20T09:55:34.901Z,48.30
2019-03-20T09:58:11.623Z,50.50
2019-03-20T10:00:34.812Z,47.20
2019-03-20T10:03:03.866Z,44.90
2019-03-20T10:05:32.862Z,44.60
2019-03-20T10:08:01.862Z,42.80
2019-03-20T10:10:30.821Z,45.50
2019-03-20T10:12:59.882Z,46.30
2019-03-20T10:15:28.874Z,42.90
2019-03-20T10:17:58.064Z,44.10
2019-03-20T10:20:27.135Z,42.80
2019-03-20T10:22:56.234Z,43.50
2019-03-20T10:25:25.308Z,48.10
2019-03-20T10:27:54.375Z,43.70
2019-03-20T10:30:23.571Z,46.80
2019-03-20T10:32:52.637Z,44.50
2019-03-20T10:35:21.783Z,46.00
2019-03-20T10:37:50.778Z,44.90
2019-03-20T10:40:20.658Z,42.90
2019-03-20T10:42:49.734Z,41.70
2019-03-20T10:45:19.040Z,42.50
2019-03-20T10:47:48.201Z,39.70
2019-03-20T10:50:18.401Z,40.00
2019-03-20T10:52:47.552Z,41.40
2019-03-20T10:55:16.673Z,41.60
2019-03-20T10:57:45.848Z,39.80
2019-03-20T11:00:17.264Z,40.60
2019-03-20T11:02:46.465Z,39.80
2019-03-20T11:05:15.722Z,39.80
2019-03-20T11:07:45.292Z,40.30
2019-03-20T11:10:16.737Z,39.20
2019-03-20T11:12:45.821Z,37.80
2019-03-20T11:15:15.481Z,37.60
2019-03-20T11:17:44.562Z,38.90
2019-03-20T11:20:15.081Z,36.30
2019-03-20T11:22:44.548Z,38.50
2019-03-20T11:25:14.993Z,38.00
2019-03-20T11:27:44.066Z,38.20
2019-03-20T11:30:18.523Z,39.40
2019-03-20T11:32:47.507Z,37.10
2019-03-20T11:35:16.686Z,39.00
2019-03-20T11:37:45.749Z,38.90
2019-03-20T11:40:23.130Z,41.10
2019-03-20T11:42:52.241Z,39.70
2019-03-20T11:45:23.401Z,40.30
2019-03-20T11:47:52.306Z,41.10
2019-03-20T11:50:23.956Z,41.30
2019-03-20T11:52:53.140Z,39.20
2019-03-20T11:55:22.202Z,38.70
2019-03-20T11:57:51.305Z,39.30
2019-03-20T12:00:20.443Z,38.90
2019-03-20T12:02:49.504Z,37.80
2019-03-20T12:05:18.614Z,37.80
2019-03-20T12:07:47.608Z,36.50
2019-03-20T12:10:18.516Z,37.30
2019-03-20T12:12:47.520Z,36.90
2019-03-20T12:15:16.718Z,35.30
2019-03-20T12:17:45.731Z,36.50
2019-03-20T12:20:16.526Z,37.70
2019-03-20T12:22:47.106Z,38.00
2019-03-20T12:25:18.183Z,37.70
2019-03-20T12:27:47.213Z,37.50
2019-03-20T12:30:18.400Z,37.00
2019-03-20T12:32:47.538Z,37.70
2019-03-20T12:35:16.643Z,37.30
2019-03-20T12:37:46.518Z,39.60
2019-03-20T12:40:20.522Z,38.10
2019-03-20T12:42:49.762Z,37.60
2019-03-20T12:45:20.622Z,37.60
2019-03-20T12:47:49.547Z,38.60
2019-03-20T12:50:18.619Z,37.50
2019-03-20T12:52:47.695Z,35.90
2019-03-20T12:55:17.134Z,37.30
2019-03-20T12:57:46.217Z,38.70
2019-03-20T13:00:17.434Z,36.90
2019-03-20T13:02:46.554Z,37.30
2019-03-20T13:05:15.840Z,37.10
2019-03-20T13:07:45.122Z,36.40
2019-03-20T13:10:15.977Z,36.50
2019-03-20T13:12:45.361Z,37.00
2019-03-20T13:15:19.114Z,36.40
2019-03-20T13:17:48.308Z,36.50
2019-03-20T13:20:17.504Z,36.40
2019-03-20T13:22:51.669Z,36.50
2019-03-20T13:25:20.752Z,38.40
2019-03-20T13:27:49.740Z,39.10
2019-03-20T13:30:24.326Z,37.80
2019-03-20T13:32:53.399Z,37.80
2019-03-20T13:35:22.412Z,38.10
2019-03-20T13:37:51.443Z,39.20
2019-03-20T13:40:20.523Z,39.00
2019-03-20T13:42:49.544Z,37.90
2019-03-20T13:45:18.668Z,37.40
2019-03-20T13:47:47.826Z,38.50
2019-03-20T13:50:16.938Z,38.40
2019-03-20T13:52:46.066Z,38.60
2019-03-20T13:55:15.427Z,38.50
2019-03-20T13:57:44.639Z,38.40
2019-03-20T14:00:18.444Z,39.80
2019-03-20T14:02:47.592Z,37.90
2019-03-20T14:05:16.574Z,38.30
2019-03-20T14:07:45.643Z,39.20
2019-03-20T14:10:24.653Z,38.10
2019-03-20T14:12:47.887Z,37.80
2019-03-20T14:15:18.093Z,38.40
2019-03-20T14:17:47.343Z,39.80
2019-03-20T14:20:21.494Z,39.60
2019-03-20T14:22:50.747Z,39.60
2019-03-20T14:25:19.841Z,40.20
2019-03-20T14:27:48.953Z,39.60
2019-03-20T14:30:20.353Z,39.60
2019-03-20T14:32:50.097Z,39.00
2019-03-20T14:35:19.208Z,39.30
2019-03-20T14:37:49.260Z,39.00
2019-03-20T14:40:20.602Z,38.50
2019-03-20T14:42:49.778Z,38.30
2019-03-20T14:45:18.871Z,38.40
2019-03-20T14:47:48.267Z,39.60
2019-03-20T14:50:19.341Z,38.80
2019-03-20T14:52:48.502Z,38.30
2019-03-20T14:55:17.592Z,39.60
2019-03-20T14:57:46.650Z,39.50
2019-03-20T15:00:17.970Z,40.00
2019-03-20T15:02:47.087Z,41.30
2019-03-20T15:05:16.315Z,41.80
2019-03-20T15:07:45.583Z,41.20
2019-03-20T15:10:16.313Z,41.90
2019-03-20T15:12:45.411Z,41.00
2019-03-20T15:15:20.495Z,40.80
2019-03-20T15:17:49.469Z,40.60
2019-03-20T15:20:18.463Z,42.00
2019-03-20T15:22:47.538Z,42.70
2019-03-20T15:25:16.602Z,42.60
2019-03-20T15:27:45.662Z,40.70
2019-03-20T15:30:15.584Z,40.90
2019-03-20T15:32:44.744Z,41.20
2019-03-20T15:35:13.845Z,40.20
2019-03-20T15:37:42.822Z,42.40
2019-03-20T15:40:13.704Z,43.10
2019-03-20T15:42:42.672Z,44.90
2019-03-20T15:45:12.714Z,46.80
2019-03-20T15:47:41.711Z,48.30
2019-03-20T15:50:12.032Z,48.60
2019-03-20T15:52:41.078Z,49.20
2019-03-20T15:55:12.986Z,50.00
2019-03-20T15:57:41.961Z,48.70
2019-03-20T16:00:19.942Z,49.50
2019-03-20T16:02:50.019Z,50.40
2019-03-20T16:05:19.071Z,52.00
2019-03-20T16:07:48.259Z,52.50
2019-03-20T16:10:19.117Z,52.20
2019-03-20T16:12:48.122Z,53.40
2019-03-20T16:15:18.466Z,54.50
2019-03-20T16:17:47.671Z,53.70
2019-03-20T16:20:17.006Z,54.20
2019-03-20T16:22:46.366Z,55.10
2019-03-20T16:25:15.935Z,54.60
2019-03-20T16:27:44.987Z,53.60
2019-03-20T16:30:18.750Z,54.60
2019-03-20T16:32:47.820Z,54.20
2019-03-20T16:35:16.983Z,54.50
2019-03-20T16:37:46.126Z,55.10
2019-03-20T16:40:19.835Z,55.60
2019-03-20T16:42:49.022Z,55.70
2019-03-20T16:45:26.164Z,54.90
2019-03-20T16:47:55.252Z,55.40
2019-03-20T16:50:24.698Z,56.30
2019-03-20T16:52:54.243Z,56.50
2019-03-20T16:55:23.709Z,56.80
2019-03-20T16:57:52.834Z,56.40
2019-03-20T17:00:24.015Z,56.90
2019-03-20T17:02:53.375Z,56.90
2019-03-20T17:05:23.338Z,58.00
2019-03-20T17:07:52.991Z,58.60
2019-03-20T17:10:33.237Z,59.20
2019-03-20T17:13:02.509Z,58.80
2019-03-20T17:15:31.814Z,59.50
2019-03-20T17:18:00.828Z,60.00
2019-03-20T17:20:30.002Z,59.10
2019-03-20T17:22:59.199Z,60.70
2019-03-20T17:25:28.346Z,60.50
2019-03-20T17:27:57.424Z,60.50
2019-03-20T17:30:28.761Z,61.20
2019-03-20T17:32:57.896Z,61.20
2019-03-20T17:35:27.038Z,61.80
2019-03-20T17:37:56.116Z,62.90
2019-03-20T17:40:25.144Z,63.10
2019-03-20T17:42:54.207Z,63.00
2019-03-20T17:45:23.666Z,63.00
2019-03-20T17:47:52.950Z,63.80
2019-03-20T17:50:23.862Z,63.80
2019-03-20T17:52:52.911Z,64.10
2019-03-20T17:55:21.975Z,64.10
2019-03-20T17:57:51.045Z,65.30
2019-03-20T18:00:29.144Z,65.00
2019-03-20T18:02:58.143Z,65.60
2019-03-20T18:05:27.323Z,65.10
2019-03-20T18:07:56.556Z,65.10
2019-03-20T18:10:25.611Z,65.60
2019-03-20T18:12:54.603Z,65.70
2019-03-20T18:15:23.694Z,65.90
2019-03-20T18:17:52.678Z,68.20
2019-03-20T18:20:22.316Z,68.30
2019-03-20T18:22:51.460Z,69.00
2019-03-20T18:25:20.460Z,68.00
2019-03-20T18:27:49.599Z,66.90
2019-03-20T18:30:22.238Z,67.80
2019-03-20T18:32:51.325Z,68.00
2019-03-20T18:35:20.461Z,67.90
2019-03-20T18:37:49.566Z,68.30
2019-03-20T18:40:18.714Z,68.00
2019-03-20T18:42:47.828Z,68.30
2019-03-20T18:45:18.827Z,68.60
2019-03-20T18:47:48.066Z,69.10
2019-03-20T18:50:17.986Z,69.80
2019-03-20T18:52:47.185Z,70.10
2019-03-20T18:55:16.389Z,71.60
2019-03-20T18:57:45.486Z,70.80
2019-03-20T19:00:17.296Z,71.50
2019-03-20T19:02:46.419Z,69.40
2019-03-20T19:05:21.394Z,69.60
2019-03-20T19:07:50.588Z,68.80
2019-03-20T19:10:19.716Z,69.60
2019-03-20T19:12:48.968Z,70.10
2019-03-20T19:15:18.189Z,71.00
2019-03-20T19:17:47.335Z,71.30
2019-03-20T19:20:19.906Z,71.30
2019-03-20T19:22:48.401Z,71.60
2019-03-20T19:25:17.529Z,71.20
2019-03-20T19:27:46.786Z,70.70
2019-03-20T19:30:17.854Z,70.30
2019-03-20T19:32:46.959Z,70.20
2019-03-20T19:35:16.006Z,70.30
2019-03-20T19:37:45.213Z,70.10
2019-03-20T19:40:14.557Z,71.00
2019-03-20T19:42:45.614Z,71.10
2019-03-20T19:45:16.182Z,71.10
2019-03-20T19:47:45.686Z,71.30
2019-03-20T19:50:14.993Z,71.30
2019-03-20T19:52:45.201Z,72.60
2019-03-20T19:55:15.037Z,72.90
2019-03-20T19:57:44.830Z,72.10
2019-03-20T20:00:15.098Z,72.10
2019-03-20T20:02:44.227Z,72.30
2019-03-20T20:05:16.085Z,73.30
2019-03-20T20:07:44.232Z,72.20
2019-03-20T20:10:13.341Z,72.60
2019-03-20T20:12:42.497Z,72.70
2019-03-20T20:15:14.188Z,73.20
2019-03-20T20:17:43.278Z,74.00
2019-03-20T20:20:14.326Z,73.30
2019-03-20T20:22:44.193Z,73.70
2019-03-20T20:25:13.606Z,73.80
2019-03-20T20:27:42.771Z,75.10
2019-03-20T20:30:14.125Z,76.90
2019-03-20T20:32:43.183Z,77.30
2019-03-20T20:35:12.672Z,76.40
2019-03-20T20:37:41.759Z,76.60
2019-03-20T20:40:12.850Z,77.40
2019-03-20T20:42:43.144Z,77.20
2019-03-20T20:45:12.623Z,77.80
2019-03-20T20:47:41.779Z,76.90
2019-03-20T20:50:11.188Z,76.30
2019-03-20T20:52:41.009Z,76.10
2019-03-20T20:55:11.231Z,76.50
2019-03-20T20:57:40.518Z,76.10
2019-03-20T21:00:13.289Z,76.20
2019-03-20T21:02:42.223Z,77.50
2019-03-20T21:05:11.335Z,77.10
2019-03-20T21:07:40.259Z,77.30
2019-03-20T21:10:10.090Z,77.00
2019-03-20T21:12:39.112Z,77.20
2019-03-20T21:15:19.523Z,77.30
2019-03-20T21:18:15.893Z,77.40
2019-03-20T21:20:45.499Z,77.50
2019-03-20T21:23:51.438Z,77.50
2019-03-20T21:26:21.234Z,77.60
2019-03-20T21:29:16.178Z,77.60
2019-03-20T21:31:52.981Z,78.20
2019-03-20T21:35:09.491Z,78.70
2019-03-20T21:38:03.550Z,79.30
2019-03-20T21:40:37.231Z,79.30
2019-03-20T21:43:42.059Z,79.50
2019-03-20T21:46:37.869Z,79.70
2019-03-20T21:49:07.377Z,80.40
2019-03-20T21:51:36.819Z,80.10
2019-03-20T21:54:44.312Z,81.60
2019-03-20T21:57:51.929Z,80.90
2019-03-20T22:00:46.645Z,81.30
2019-03-20T22:03:16.127Z,81.90
2019-03-20T22:06:37.056Z,82.30
2019-03-20T22:09:24.350Z,82.10
2019-03-20T22:12:18.422Z,82.50
2019-03-20T22:14:52.398Z,83.20
2019-03-20T22:17:52.867Z,82.90
2019-03-20T22:20:32.202Z,83.40
2019-03-20T22:23:28.990Z,83.70
2019-03-20T22:26:24.130Z,83.60
2019-03-20T22:29:23.841Z,84.10
2019-03-20T22:32:29.350Z,84.60
2019-03-20T22:35:47.499Z,85.60
2019-03-20T22:38:33.327Z,85.90
2019-03-20T22:41:46.491Z,87.30
2019-03-20T22:44:16.038Z,85.50
2019-03-20T22:47:19.791Z,85.80
2019-03-20T22:50:24.548Z,85.80
2019-03-20T22:53:29.098Z,86.60
2019-03-20T22:56:51.530Z,87.20
2019-03-20T22:59:20.971Z,87.30
2019-03-20T23:02:36.014Z,87.40
2019-03-20T23:05:06.529Z,87.50
2019-03-20T23:07:36.054Z,87.90
2019-03-20T23:10:08.174Z,88.50
2019-03-20T23:12:37.679Z,88.80
2019-03-20T23:15:09.416Z,89.30
2019-03-20T23:17:38.857Z,89.60
2019-03-20T23:20:10.646Z,89.70
2019-03-20T23:22:40.267Z,90.00
2019-03-20T23:25:10.386Z,90.20
2019-03-20T23:27:39.935Z,90.30
